Doha, Qatar

2:31 PM AST on July 04, 2015 (GMT +0300)
Wakra | | Change Station
CLOSE
Current Station
Personal Weather Station
Location: Wakra, WAKRA
Elevation: 23 ft
Nearby Weather Stations

Elev 23 ft 25.17 °N, 51.60 °E | Updated 12 seconds ago

Clear
Clear
100.1 °F
Feels Like 132 °F
N
5.8
Wind Variable Wind from East
Gusts 9.8 mph

Today
High -- | Low -- °F
--% Chance of Precip.
Yesterday
High -- | Low -- °F
Precip. -- in
4:47 AM 6:28 PM
Waning Gibbous, 93% visible
Pressure 29.53 in
Visibility 5.6 miles
Clouds
Heat Index 132 °F
Dew Point 85 °F
Humidity 62%
Rainfall 0.00 in
Snow Depth Not available.
UV Not available.
Pollen Not available.
Air Quality Not available.
Flu Activity Not available.
METAR OTBD 041100Z 09009KT 9000 NSC 37/28 Q1000 NOSIG

More Conditions Fewer Conditions

Pressure 29.53 in
Visibility 5.6 miles
Clouds
Heat Index 132 °F
Dew Point 85 °F
Humidity 62%
Rainfall 0.00 in
Snow Depth Not available.
UV Not available.
Pollen Not available.
Air Quality Not available.
Flu Activity Not available.
METAR OTBD 041100Z 09009KT 9000 NSC 37/28 Q1000 NOSIG

More Conditions Fewer Conditions

10-Day Weather Forecast

×

Almanac

Astronomy

Jul. 04, 2015 Rise Set
Actual Time
Civil Twilight
Nautical Twilight
Astronomical Twilight
Moon
Length of Visible Light
Length of Day
Tomorrow will be .
, % of the Moon is Illuminated

Today's Extremes

Country Highs Country Lows

Community

WunderPhotos

Upload Photos

1,834,939 photos uploaded!

WunderBlogs® & News

Nearby

Air Quality

  Air Quality AQ Index Pollutant
Not available.

Snow Depth

Station Depth Elevation

Earthquake Activity

City Distance Mag. Time & Date
Minimum magnitude displayed is 2.5.

Coastal Water Temperatures

Place Temperature

Stations

Nearby Weather Stations

Station Location Temp. Windchill Dew Point Humidity Wind Precip. Elev Updated Type